Time;durP1;ratioP1;P1;durP2;ratioP2;P2;SDS_P1;SDS_P2;PMS_P1;PMS_P2;Temp;Humidity;BMP_temperature;BMP_pressure;BME280_temperature;BME280_humidity;BME280_pressure;Samples;Min_cycle;Max_cycle;Signal;HPM_P1;HPM_P2
2022/01/07 00:00:42;;;;;;;28.40;10.60;;;;;;;0.13;100.00;99320.63;4953933;28;20207;-85
2022/01/07 00:03:19;;;;;;;25.93;10.57;;;;;;;0.14;100.00;99327.56;4924251;29;20201;-83
2022/01/07 00:05:48;;;;;;;25.57;10.60;;;;;;;0.16;100.00;99327.53;4913104;29;20205;-85
2022/01/07 00:08:19;;;;;;;24.57;11.03;;;;;;;0.13;100.00;99327.59;4912029;29;20234;-84
2022/01/07 00:10:48;;;;;;;27.03;10.53;;;;;;;0.07;100.00;99332.91;4914740;29;20209;-85
2022/01/07 00:13:16;;;;;;;29.00;12.30;;;;;;;-0.02;100.00;99326.97;4915883;29;20216;-84
2022/01/07 00:15:45;;;;;;;23.73;10.60;;;;;;;0.19;100.00;99332.66;4956515;28;20204;-85
2022/01/07 00:18:14;;;;;;;25.80;10.83;;;;;;;0.19;100.00;99333.56;4947225;29;20662;-85
2022/01/07 00:20:44;;;;;;;28.10;11.00;;;;;;;0.14;100.00;99330.16;4967622;28;20209;-86
2022/01/07 00:23:13;;;;;;;22.80;11.90;;;;;;;0.16;100.00;99330.13;5013754;28;20234;-85
2022/01/07 00:25:46;;;;;;;25.30;11.37;;;;;;;0.19;100.00;99319.63;5015267;28;20198;-85
2022/01/07 00:28:14;;;;;;;27.27;11.70;;;;;;;0.22;100.00;99332.63;5006683;28;20213;-84
2022/01/07 00:30:44;;;;;;;25.67;11.27;;;;;;;0.22;100.00;99330.88;5008738;28;20244;-83
2022/01/07 00:33:13;;;;;;;19.67;11.23;;;;;;;0.20;100.00;99327.44;5012463;28;20202;-84
2022/01/07 00:35:50;;;;;;;24.60;11.30;;;;;;;0.15;100.00;99318.00;5014822;28;20654;-84
2022/01/07 00:38:19;;;;;;;28.50;12.13;;;;;;;0.17;100.00;99317.06;5011953;28;20191;-84
2022/01/07 00:40:50;;;;;;;21.40;11.87;;;;;;;0.24;100.00;99310.00;5005984;28;20194;-84
2022/01/07 00:43:19;;;;;;;28.07;12.33;;;;;;;0.12;100.00;99324.13;5016772;28;20226;-84
2022/01/07 00:45:48;;;;;;;28.57;12.73;;;;;;;0.16;100.00;99323.16;5008747;28;20662;-85
2022/01/07 00:48:16;;;;;;;24.87;11.93;;;;;;;0.23;100.00;99332.59;5013189;28;20264;-85
2022/01/07 00:50:45;;;;;;;29.00;12.77;;;;;;;0.24;100.00;99331.69;5006912;28;20202;-84
2022/01/07 00:53:13;;;;;;;23.40;13.20;;;;;;;0.23;100.00;99329.97;5000518;28;20712;-85
2022/01/07 00:55:42;;;;;;;27.10;13.93;;;;;;;0.15;100.00;99303.22;5005140;28;20201;-84
2022/01/07 00:58:12;;;;;;;27.73;12.50;;;;;;;0.16;100.00;99304.09;5014340;28;20322;-84
2022/01/07 01:00:42;;;;;;;26.73;12.70;;;;;;;0.15;100.00;99304.97;5014793;28;20190;-84
2022/01/07 01:03:10;;;;;;;24.20;12.47;;;;;;;0.14;100.00;99308.47;5004098;28;20221;-83
2022/01/07 01:05:39;;;;;;;27.57;14.07;;;;;;;0.19;100.00;99296.19;5007820;28;20281;-84
2022/01/07 01:08:07;;;;;;;27.27;12.87;;;;;;;0.18;100.00;99297.94;5009499;28;20223;-84
2022/01/07 01:10:38;;;;;;;28.80;14.43;;;;;;;0.34;100.00;99301.13;5008138;28;20194;-84
2022/01/07 01:13:06;;;;;;;27.10;13.33;;;;;;;0.42;100.00;99301.81;5012367;28;20213;-84
2022/01/07 01:15:36;;;;;;;21.40;12.27;;;;;;;0.32;100.00;99296.84;5013507;28;20206;-84
2022/01/07 01:18:04;;;;;;;33.17;13.73;;;;;;;0.28;100.00;99299.47;5010997;28;20237;-84
2022/01/07 01:20:33;;;;;;;28.77;13.57;;;;;;;0.21;100.00;99308.34;5011089;28;20202;-84
2022/01/07 01:23:05;;;;;;;25.77;12.53;;;;;;;0.24;100.00;99303.06;5012262;28;20309;-84
2022/01/07 01:25:33;;;;;;;27.73;12.93;;;;;;;0.36;100.00;99298.47;5012511;28;20203;-84
2022/01/07 01:28:02;;;;;;;27.63;12.47;;;;;;;0.20;100.00;99297.94;5007177;28;20204;-83
2022/01/07 01:30:33;;;;;;;25.67;12.00;;;;;;;0.34;100.00;99292.44;5005823;28;20253;-84
2022/01/07 01:33:03;;;;;;;26.73;13.40;;;;;;;0.30;100.00;99285.59;5010271;28;20194;-84
2022/01/07 01:35:37;;;;;;;24.03;12.33;;;;;;;0.23;100.00;99290.91;5011519;28;20198;-84
2022/01/07 01:38:07;;;;;;;25.27;13.47;;;;;;;0.26;100.00;99282.19;5006626;28;20224;-84
2022/01/07 01:40:36;;;;;;;24.40;12.60;;;;;;;0.23;100.00;99280.50;5005914;28;20370;-84
2022/01/07 01:43:04;;;;;;;27.27;12.33;;;;;;;0.40;100.00;99271.50;5008018;28;20191;-84
2022/01/07 01:45:33;;;;;;;29.50;14.00;;;;;;;0.37;100.00;99276.75;5011027;28;20664;-83
2022/01/07 01:48:06;;;;;;;23.40;12.33;;;;;;;0.47;100.00;99283.47;5012002;28;20281;-84
2022/01/07 01:50:34;;;;;;;29.67;13.50;;;;;;;0.46;100.00;99280.00;5013394;28;20194;-84
2022/01/07 01:53:02;;;;;;;26.47;12.83;;;;;;;0.40;100.00;99272.34;5008034;28;20198;-85
2022/01/07 01:55:31;;;;;;;24.27;12.53;;;;;;;0.35;100.00;99265.50;5006052;28;20206;-84
2022/01/07 01:57:59;;;;;;;24.07;12.23;;;;;;;0.35;100.00;99265.50;5006443;28;20226;-84
2022/01/07 02:00:28;;;;;;;23.33;11.53;;;;;;;0.39;100.00;99260.22;5003490;28;20237;-85
2022/01/07 02:02:56;;;;;;;23.13;11.27;;;;;;;0.45;100.00;99254.84;4970334;28;20242;-85
2022/01/07 02:05:30;;;;;;;20.83;10.83;;;;;;;0.48;100.00;99246.09;4968522;28;20196;-84
2022/01/07 02:07:58;;;;;;;23.30;11.43;;;;;;;0.46;100.00;99248.75;4973705;28;20199;-82
2022/01/07 02:10:28;;;;;;;28.80;11.73;;;;;;;0.42;100.00;99247.13;4974000;28;20204;-84
2022/01/07 02:12:57;;;;;;;21.63;11.97;;;;;;;0.49;100.00;99232.22;4970319;28;20227;-84
2022/01/07 02:15:25;;;;;;;24.03;11.90;;;;;;;0.49;100.00;99232.22;4973108;28;20234;-84
2022/01/07 02:17:54;;;;;;;27.57;11.93;;;;;;;0.40;100.00;99232.41;4967664;28;20226;-84
2022/01/07 02:20:27;;;;;;;26.27;12.30;;;;;;;0.53;100.00;99218.22;4979909;28;20197;-83
2022/01/07 02:22:57;;;;;;;27.10;13.13;;;;;;;0.53;100.00;99218.22;5008785;28;20234;-83
2022/01/07 02:25:26;;;;;;;23.97;12.27;;;;;;;0.46;100.00;99217.47;5007456;28;20202;-83
2022/01/07 02:27:55;;;;;;;27.80;12.50;;;;;;;0.44;100.00;99208.84;5004946;28;20680;-85
2022/01/07 02:30:27;;;;;;;31.93;13.00;;;;;;;0.54;100.00;99206.91;5011090;28;20248;-83
2022/01/07 02:32:56;;;;;;;27.20;13.87;;;;;;;0.54;100.00;99206.91;5011434;28;20252;-83
2022/01/07 02:35:32;;;;;;;25.60;13.43;;;;;;;0.63;100.00;99211.03;4951235;28;20200;-84
2022/01/07 02:38:02;;;;;;;31.30;15.40;;;;;;;0.62;100.00;99210.19;4949142;28;20243;-83
2022/01/07 02:40:30;;;;;;;29.10;15.47;;;;;;;0.61;100.00;99207.63;4948632;28;20209;-84
2022/01/07 02:42:59;;;;;;;29.80;14.50;;;;;;;0.64;100.00;99195.38;4950747;28;20196;-83
2022/01/07 02:45:27;;;;;;;27.77;14.83;;;;;;;0.66;100.00;99197.94;4945731;28;20225;-83
2022/01/07 02:47:58;;;;;;;32.03;16.40;;;;;;;0.63;100.00;99190.19;4950662;28;20205;-84
2022/01/07 02:50:31;;;;;;;26.63;15.20;;;;;;;0.74;100.00;99190.78;4945885;28;20208;-82
2022/01/07 02:52:59;;;;;;;28.80;15.63;;;;;;;0.66;100.00;99187.50;4964923;28;20217;-84
2022/01/07 02:55:29;;;;;;;28.97;14.97;;;;;;;0.76;100.00;99189.00;5005361;28;20198;-84
2022/01/07 02:57:59;;;;;;;25.67;15.00;;;;;;;0.77;100.00;99181.16;5011746;28;20221;-83
2022/01/07 03:00:29;;;;;;;31.13;15.93;;;;;;;0.76;100.00;99183.78;4945458;28;20261;-83
2022/01/07 03:02:58;;;;;;;32.83;15.20;;;;;;;0.93;100.00;99176.41;4949383;28;20345;-84
2022/01/07 03:05:29;;;;;;;27.53;14.63;;;;;;;0.82;100.00;99168.00;4951074;28;20198;-83
2022/01/07 03:07:58;;;;;;;29.23;15.53;;;;;;;0.83;100.00;99156.69;4949245;28;20267;-83
2022/01/07 03:10:29;;;;;;;34.10;14.50;;;;;;;0.96;100.00;99155.47;4952920;28;20200;-84
2022/01/07 03:12:59;;;;;;;25.00;15.13;;;;;;;0.97;100.00;99161.56;4953328;28;20214;-84
2022/01/07 03:15:28;;;;;;;24.70;15.50;;;;;;;0.89;100.00;99156.53;4951233;29;20204;-83
2022/01/07 03:17:58;;;;;;;29.10;15.57;;;;;;;0.95;100.00;99150.31;4970728;28;20234;-83
2022/01/07 03:20:29;;;;;;;29.60;15.37;;;;;;;0.95;100.00;99150.31;5014444;28;20205;-83
2022/01/07 03:22:57;;;;;;;26.73;15.67;;;;;;;0.90;100.00;99152.19;5017024;28;20226;-84
2022/01/07 03:25:26;;;;;;;27.37;15.57;;;;;;;0.90;100.00;99141.75;5013037;28;20206;-83
2022/01/07 03:27:57;;;;;;;35.67;17.80;;;;;;;0.90;100.00;99141.75;5011014;28;20202;-83
2022/01/07 03:30:26;;;;;;;37.63;17.00;;;;;;;0.76;100.00;99155.97;5015861;28;20318;-84
2022/01/07 03:32:55;;;;;;;33.73;17.30;;;;;;;0.75;100.00;99141.22;5013156;28;20198;-84
2022/01/07 03:35:25;;;;;;;32.93;17.07;;;;;;;0.80;100.00;99134.16;5006367;28;20197;-84
2022/01/07 03:37:55;;;;;;;41.70;17.83;;;;;;;0.80;100.00;99133.31;5012155;28;20222;-84
2022/01/07 03:40:23;;;;;;;38.07;18.67;;;;;;;0.81;100.00;99132.41;5007849;28;20241;-84
2022/01/07 03:42:52;;;;;;;34.83;18.60;;;;;;;0.81;100.00;99122.84;5014272;28;20206;-84
2022/01/07 03:45:22;;;;;;;33.50;17.33;;;;;;;0.78;100.00;99130.75;5014743;28;20202;-83
2022/01/07 03:47:51;;;;;;;38.33;17.93;;;;;;;0.79;100.00;99129.00;5006943;28;20274;-83
2022/01/07 03:50:23;;;;;;;34.43;17.70;;;;;;;0.75;100.00;99129.94;5011943;28;20202;-84
2022/01/07 03:52:55;;;;;;;35.77;18.23;;;;;;;0.72;100.00;99130.88;5017541;28;20672;-84
2022/01/07 03:55:26;;;;;;;34.73;19.10;;;;;;;0.76;100.00;99124.69;5016339;28;20201;-83
2022/01/07 03:57:55;;;;;;;38.67;19.37;;;;;;;0.53;100.00;99129.63;5013358;28;20190;-83
2022/01/07 04:00:25;;;;;;;39.40;20.27;;;;;;;0.53;100.00;99129.63;5010855;28;20201;-84
2022/01/07 04:02:54;;;;;;;36.33;18.97;;;;;;;0.62;100.00;99124.19;5010025;28;20198;-84
2022/01/07 04:05:23;;;;;;;35.90;20.17;;;;;;;0.69;100.00;99125.75;5014373;28;20273;-84
2022/01/07 04:07:54;;;;;;;36.83;20.33;;;;;;;0.78;100.00;99130.75;5008892;28;20281;-83
2022/01/07 04:10:23;;;;;;;40.33;20.10;;;;;;;0.80;100.00;99128.09;5008285;28;20198;-84
2022/01/07 04:12:55;;;;;;;41.67;20.03;;;;;;;0.76;100.00;99127.28;5009390;28;20198;-84
2022/01/07 04:15:24;;;;;;;33.40;19.10;;;;;;;0.76;100.00;99129.03;5013181;28;20202;-84
2022/01/07 04:17:55;;;;;;;32.83;18.80;;;;;;;0.71;100.00;99117.91;5014476;28;20281;-83
2022/01/07 04:20:26;;;;;;;34.13;19.57;;;;;;;0.67;100.00;99117.09;5004730;28;20194;-84
2022/01/07 04:23:03;;;;;;;37.40;19.60;;;;;;;0.69;100.00;99110.13;5013860;28;20304;-84
2022/01/07 04:25:32;;;;;;;34.33;19.53;;;;;;;0.68;100.00;99102.34;5010929;28;20198;-83
2022/01/07 04:28:03;;;;;;;37.60;19.93;;;;;;;0.69;100.00;99112.72;5009039;28;20210;-84
2022/01/07 04:30:34;;;;;;;37.27;20.37;;;;;;;0.65;100.00;99107.63;5011805;28;20199;-83
2022/01/07 04:33:04;;;;;;;37.67;19.13;;;;;;;0.62;100.00;99112.91;5012960;28;20202;-84
2022/01/07 04:35:36;;;;;;;32.17;19.30;;;;;;;0.64;100.00;99104.16;4916527;29;20379;-84
2022/01/07 04:38:09;;;;;;;37.13;20.20;;;;;;;0.63;100.00;99101.59;4887149;29;20236;-83
2022/01/07 04:40:41;;;;;;;40.67;19.93;;;;;;;0.62;100.00;99095.53;4911778;29;20717;-83
2022/01/07 04:43:10;;;;;;;34.87;21.00;;;;;;;0.55;100.00;99100.03;4878030;29;20219;-83
2022/01/07 04:45:39;;;;;;;37.37;19.73;;;;;;;0.60;100.00;99097.31;4877021;29;20255;-84
2022/01/07 04:48:08;;;;;;;39.00;20.03;;;;;;;0.51;100.00;99089.72;4861316;29;20207;-83
2022/01/07 04:50:37;;;;;;;36.13;20.30;;;;;;;0.65;100.00;99095.44;4855764;29;20204;-83
2022/01/07 04:53:06;;;;;;;38.40;19.47;;;;;;;0.63;100.00;99101.59;4868071;29;20206;-83
2022/01/07 04:55:38;;;;;;;36.10;19.57;;;;;;;0.63;100.00;99097.22;4852186;29;20510;-83
2022/01/07 04:58:08;;;;;;;35.43;20.30;;;;;;;0.65;100.00;99086.75;4896147;29;20234;-83
2022/01/07 05:00:39;;;;;;;39.00;20.57;;;;;;;0.60;100.00;99094.72;4903268;29;20212;-83
2022/01/07 05:03:07;;;;;;;37.57;20.20;;;;;;;0.57;100.00;99090.41;4933333;29;20200;-83
2022/01/07 05:05:36;;;;;;;36.03;20.60;;;;;;;0.57;100.00;99090.41;4936506;29;20203;-83
2022/01/07 05:08:07;;;;;;;35.73;19.37;;;;;;;0.53;100.00;99073.16;4950386;28;20221;-83
2022/01/07 05:10:38;;;;;;;35.00;21.13;;;;;;;0.63;100.00;99089.41;4951187;28;20211;-83
2022/01/07 05:13:08;;;;;;;35.77;19.73;;;;;;;0.60;100.00;99086.91;4965142;28;20202;-83
2022/01/07 05:15:36;;;;;;;35.27;20.57;;;;;;;0.60;100.00;99078.22;5004525;28;20210;-83
2022/01/07 05:18:05;;;;;;;40.60;19.63;;;;;;;0.52;100.00;99071.44;5014836;28;20198;-83
2022/01/07 05:20:37;;;;;;;38.37;20.03;;;;;;;0.54;100.00;99071.41;5009551;28;20218;-83
2022/01/07 05:23:05;;;;;;;34.07;20.10;;;;;;;0.54;100.00;99064.44;5006724;28;20231;-84
2022/01/07 05:25:39;;;;;;;38.30;20.57;;;;;;;0.65;100.00;99068.53;5004933;28;20206;-84
2022/01/07 05:28:07;;;;;;;35.33;19.60;;;;;;;0.64;100.00;99070.28;5011781;28;20201;-84
2022/01/07 05:30:36;;;;;;;37.73;18.47;;;;;;;0.66;100.00;99065.03;5010956;28;20195;-84
2022/01/07 05:33:07;;;;;;;36.70;20.23;;;;;;;0.65;100.00;99066.78;5010790;28;20241;-83
2022/01/07 05:35:36;;;;;;;39.27;19.20;;;;;;;0.67;100.00;99071.94;4990298;28;20194;-84
2022/01/07 05:38:04;;;;;;;33.10;19.07;;;;;;;0.60;100.00;99067.81;4987640;28;20203;-83
2022/01/07 05:40:33;;;;;;;37.30;18.13;;;;;;;0.66;100.00;99060.66;4989154;28;20350;-84
2022/01/07 05:43:03;;;;;;;32.73;18.03;;;;;;;0.75;100.00;99067.38;4990103;28;20206;-84
2022/01/07 05:45:32;;;;;;;31.77;17.20;;;;;;;0.66;100.00;99065.88;4992257;28;20210;-83
2022/01/07 05:48:00;;;;;;;27.80;16.60;;;;;;;0.67;100.00;99074.53;4993497;28;20201;-83
2022/01/07 05:50:28;;;;;;;28.33;16.07;;;;;;;0.72;100.00;99075.31;4983206;28;20203;-84
2022/01/07 05:52:56;;;;;;;33.47;17.67;;;;;;;0.69;100.00;99065.81;4996237;28;20322;-83
2022/01/07 05:55:24;;;;;;;32.20;16.03;;;;;;;0.75;100.00;99065.63;5010373;28;20198;-83
2022/01/07 05:57:53;;;;;;;27.53;15.33;;;;;;;0.78;100.00;99064.72;5008985;28;20216;-83
2022/01/07 06:00:23;;;;;;;35.30;16.13;;;;;;;0.76;100.00;99056.06;5007337;28;20218;-83
2022/01/07 06:02:51;;;;;;;32.63;17.03;;;;;;;0.72;100.00;99055.31;5008827;28;20202;-84
2022/01/07 06:05:20;;;;;;;29.40;16.20;;;;;;;0.76;100.00;99045.63;5011430;28;20225;-83
2022/01/07 06:07:48;;;;;;;30.27;15.37;;;;;;;0.79;100.00;99053.41;5006583;28;20198;-84
2022/01/07 06:10:19;;;;;;;33.50;16.60;;;;;;;0.82;100.00;99038.53;5006367;28;20249;-83
2022/01/07 06:12:48;;;;;;;25.40;15.67;;;;;;;0.85;100.00;99019.34;5011682;28;20207;-83
2022/01/07 06:15:16;;;;;;;31.93;17.17;;;;;;;0.84;100.00;99026.28;5010974;28;20210;-83
2022/01/07 06:17:46;;;;;;;28.90;16.87;;;;;;;0.91;100.00;99028.75;5010980;28;20198;-84
2022/01/07 06:20:15;;;;;;;30.13;16.57;;;;;;;0.96;100.00;99017.28;5009131;28;20705;-83
2022/01/07 06:22:43;;;;;;;35.23;16.83;;;;;;;0.83;100.00;99013.31;5005207;28;20245;-84
2022/01/07 06:25:12;;;;;;;30.50;16.53;;;;;;;0.78;100.00;99016.06;5008115;28;20196;-84
2022/01/07 06:27:42;;;;;;;29.63;16.80;;;;;;;0.74;100.00;99014.41;5011803;28;20253;-83
2022/01/07 06:30:12;;;;;;;27.60;15.53;;;;;;;0.76;100.00;99012.59;5004084;28;20198;-84
2022/01/07 06:32:40;;;;;;;28.70;16.50;;;;;;;0.75;100.00;98999.63;5006488;28;20206;-84
2022/01/07 06:35:14;;;;;;;29.50;15.23;;;;;;;0.70;100.00;98998.91;4973314;28;20343;-84
2022/01/07 06:37:43;;;;;;;32.47;16.13;;;;;;;0.70;100.00;99002.38;4962149;28;20208;-84
2022/01/07 06:40:12;;;;;;;28.97;15.93;;;;;;;0.76;100.00;98996.13;4961756;28;20695;-84
2022/01/07 06:42:42;;;;;;;29.27;16.80;;;;;;;0.80;100.00;99003.81;4970656;28;20199;-83
2022/01/07 06:45:12;;;;;;;23.93;15.83;;;;;;;0.82;100.00;99011.59;4967244;28;20239;-83
2022/01/07 06:47:42;;;;;;;29.03;15.87;;;;;;;0.83;100.00;99014.16;4972228;28;20483;-84
2022/01/07 06:50:14;;;;;;;25.90;15.70;;;;;;;0.80;100.00;99008.19;4970798;28;20200;-83
2022/01/07 06:52:44;;;;;;;25.30;15.97;;;;;;;0.87;100.00;99004.53;4980648;28;20241;-84
2022/01/07 06:55:13;;;;;;;30.60;17.00;;;;;;;0.79;100.00;99004.72;5014061;28;20658;-83
2022/01/07 06:57:43;;;;;;;32.27;18.03;;;;;;;0.83;100.00;99003.75;5007981;28;20190;-82
2022/01/07 07:00:12;;;;;;;31.30;17.73;;;;;;;0.78;100.00;99002.16;5014106;28;20214;-83
2022/01/07 07:02:41;;;;;;;27.00;15.90;;;;;;;0.82;100.00;99009.00;5018678;28;20195;-83
2022/01/07 07:05:11;;;;;;;30.27;15.87;;;;;;;0.93;100.00;99009.56;5013903;28;20201;-83
2022/01/07 07:07:40;;;;;;;32.00;16.47;;;;;;;0.96;100.00;99006.84;5011232;28;20190;-83
2022/01/07 07:10:10;;;;;;;28.40;16.50;;;;;;;0.86;100.00;98997.56;5010688;28;20222;-84
2022/01/07 07:12:38;;;;;;;28.43;15.37;;;;;;;0.94;100.00;98993.00;5010476;28;20252;-83
2022/01/07 07:15:07;;;;;;;28.57;15.80;;;;;;;0.87;100.00;98994.09;5012120;28;20202;-84
2022/01/07 07:17:35;;;;;;;28.27;17.63;;;;;;;0.89;100.00;98981.03;5011832;28;20198;-83
2022/01/07 07:20:04;;;;;;;26.83;15.60;;;;;;;0.89;100.00;98987.09;5012466;28;20214;-83
2022/01/07 07:22:32;;;;;;;25.47;16.20;;;;;;;0.87;100.00;98978.47;5014116;28;20233;-83
2022/01/07 07:25:05;;;;;;;26.27;15.73;;;;;;;0.83;100.00;98987.25;5008840;28;20256;-84
2022/01/07 07:27:35;;;;;;;25.43;15.90;;;;;;;0.86;100.00;98981.94;5013280;28;20197;-83
2022/01/07 07:30:07;;;;;;;23.97;15.33;;;;;;;0.84;100.00;98981.97;5013224;28;20199;-84
2022/01/07 07:32:36;;;;;;;26.37;16.83;;;;;;;0.80;100.00;98989.94;5014377;28;20192;-82
2022/01/07 07:37:51;;;;;;;32.43;16.60;;;;;;;0.80;100.00;98989.94;5016031;28;20681;-83
2022/01/07 07:40:21;;;;;;;30.07;17.40;;;;;;;0.78;100.00;98987.38;4914573;29;20229;-84
2022/01/07 07:42:52;;;;;;;28.03;15.27;;;;;;;0.84;100.00;98974.16;4917263;29;20209;-83
2022/01/07 07:45:21;;;;;;;26.50;16.33;;;;;;;0.73;100.00;98986.63;4918135;29;20670;-83
2022/01/07 07:47:49;;;;;;;28.33;16.07;;;;;;;0.79;100.00;98978.66;4912149;29;20249;-84
2022/01/07 07:50:17;;;;;;;31.13;17.53;;;;;;;0.78;100.00;98984.78;4914757;29;20205;-82
2022/01/07 07:52:46;;;;;;;27.43;16.40;;;;;;;0.81;100.00;98978.63;4918300;29;20213;-82
2022/01/07 07:55:14;;;;;;;26.93;15.70;;;;;;;0.84;100.00;98968.09;4914186;29;20193;-82
2022/01/07 07:57:45;;;;;;;26.03;16.57;;;;;;;0.82;100.00;98975.09;4928272;28;20205;-82
2022/01/07 08:00:14;;;;;;;28.57;16.97;;;;;;;0.71;100.00;98972.81;5012768;28;20191;-83
2022/01/07 08:02:43;;;;;;;23.73;15.60;;;;;;;0.83;100.00;98975.06;5010290;28;20202;-82
2022/01/07 08:05:12;;;;;;;26.00;15.73;;;;;;;0.88;100.00;98976.72;5003648;28;20697;-83
2022/01/07 08:07:41;;;;;;;23.53;16.03;;;;;;;0.85;100.00;98968.03;5010778;28;20221;-82
2022/01/07 08:10:10;;;;;;;23.80;15.33;;;;;;;0.89;100.00;98960.16;5009135;28;20228;-83
2022/01/07 08:12:53;;;;;;;26.47;16.17;;;;;;;0.92;100.00;98973.09;5008463;28;20234;-83
2022/01/07 08:18:10;;;;;;;25.87;16.23;;;;;;;0.88;100.00;98980.16;5015659;28;20197;-84
2022/01/07 08:20:40;;;;;;;24.90;16.10;;;;;;;0.93;100.00;98982.63;5011237;28;20321;-83
2022/01/07 08:23:08;;;;;;;25.07;16.30;;;;;;;0.86;100.00;98981.94;5009494;28;20233;-83
2022/01/07 08:25:37;;;;;;;26.23;15.97;;;;;;;0.92;100.00;98976.56;5010167;28;20206;-83
2022/01/07 08:28:06;;;;;;;22.23;15.83;;;;;;;1.02;100.00;98979.75;5007122;28;20191;-83
2022/01/07 08:30:47;;;;;;;20.77;15.10;;;;;;;0.97;100.00;98973.84;5007017;28;20205;-83
2022/01/07 08:36:05;;;;;;;21.43;15.37;;;;;;;0.96;100.00;98970.34;5012531;28;20209;-83
2022/01/07 08:38:34;;;;;;;20.47;13.83;;;;;;;0.92;100.00;98970.50;5007735;28;20195;-83
2022/01/07 08:41:03;;;;;;;24.17;14.53;;;;;;;0.96;100.00;98972.97;5014195;28;20225;-83
2022/01/07 08:43:31;;;;;;;21.67;13.97;;;;;;;1.03;100.00;98969.28;5010377;28;20198;-82
2022/01/07 08:46:02;;;;;;;26.87;14.77;;;;;;;0.88;100.00;98967.13;5013325;28;20233;-82
2022/01/07 08:48:32;;;;;;;20.10;13.27;;;;;;;0.91;100.00;98959.22;5010926;28;20208;-83
2022/01/07 08:51:00;;;;;;;22.80;14.13;;;;;;;1.07;100.00;98967.47;5012634;28;20206;-83
2022/01/07 08:53:31;;;;;;;17.97;12.73;;;;;;;1.00;100.00;98966.78;5006695;28;20200;-83
2022/01/07 08:56:00;;;;;;;18.93;12.73;;;;;;;0.98;100.00;98965.13;5009804;28;20229;-83
2022/01/07 08:58:28;;;;;;;19.23;12.30;;;;;;;1.03;100.00;98958.84;4953149;28;20208;-83
2022/01/07 09:00:57;;;;;;;17.97;13.33;;;;;;;1.03;100.00;98958.84;4955384;28;20216;-82
2022/01/07 09:03:27;;;;;;;19.33;12.43;;;;;;;1.06;100.00;98955.28;4949529;29;20212;-84
2022/01/07 09:05:57;;;;;;;17.00;11.67;;;;;;;1.05;100.00;98958.81;4951070;29;20204;-83
2022/01/07 09:08:26;;;;;;;17.03;12.50;;;;;;;1.07;100.00;98952.66;4949220;28;20215;-83
2022/01/07 09:10:54;;;;;;;22.97;15.13;;;;;;;1.10;100.00;98946.50;4952904;29;20208;-83
2022/01/07 09:13:22;;;;;;;22.37;14.87;;;;;;;1.11;100.00;98948.22;4950544;28;20251;-83
2022/01/07 09:15:51;;;;;;;17.20;11.70;;;;;;;1.14;100.00;98948.09;4964178;28;20194;-84
2022/01/07 09:18:21;;;;;;;14.57;10.90;;;;;;;1.21;100.00;98936.59;5006865;28;20250;-84
2022/01/07 09:20:50;;;;;;;23.30;14.33;;;;;;;1.14;100.00;98948.97;5009711;28;20203;-82
2022/01/07 09:23:19;;;;;;;17.67;12.03;;;;;;;1.12;100.00;98939.47;5008346;28;20230;-83
2022/01/07 09:25:50;;;;;;;14.53;10.50;;;;;;;1.05;100.00;98944.00;5006103;28;20206;-83
2022/01/07 09:28:18;;;;;;;16.00;12.37;;;;;;;1.05;100.00;98953.59;5009123;28;20261;-83
2022/01/07 09:30:48;;;;;;;17.63;12.23;;;;;;;1.08;100.00;98953.53;5009476;28;20221;-83
2022/01/07 09:33:16;;;;;;;15.80;11.90;;;;;;;1.14;100.00;98953.31;5009265;28;20210;-84
2022/01/07 09:35:45;;;;;;;14.70;11.37;;;;;;;1.16;100.00;98946.34;4975320;28;20206;-85
2022/01/07 09:38:15;;;;;;;18.23;12.27;;;;;;;1.15;100.00;98952.41;5009307;28;20201;-85
2022/01/07 09:40:43;;;;;;;16.43;11.57;;;;;;;1.08;100.00;98954.38;4991609;28;20202;-84
2022/01/07 09:43:15;;;;;;;15.87;11.73;;;;;;;1.12;100.00;98937.72;5004190;28;20226;-85
2022/01/07 09:45:45;;;;;;;17.40;11.30;;;;;;;1.17;100.00;98942.81;5008540;28;20224;-85
2022/01/07 09:48:14;;;;;;;17.93;12.37;;;;;;;1.21;100.00;98940.97;5009587;28;20205;-86
2022/01/07 09:50:42;;;;;;;15.23;10.10;;;;;;;1.20;100.00;98936.66;5007705;28;20249;-87
2022/01/07 09:53:15;;;;;;;14.53;11.43;;;;;;;1.24;100.00;98941.72;5005566;28;20202;-86
2022/01/07 09:55:46;;;;;;;15.53;11.40;;;;;;;1.15;100.00;98950.66;5008386;28;20253;-86
2022/01/07 09:58:16;;;;;;;13.83;10.43;;;;;;;1.26;100.00;98953.00;5004758;28;20206;-86
2022/01/07 10:00:45;;;;;;;15.00;11.50;;;;;;;1.26;100.00;98942.56;5009938;28;20201;-86
2022/01/07 10:03:15;;;;;;;16.83;11.20;;;;;;;1.17;100.00;98937.59;5011561;28;20246;-85
2022/01/07 10:05:47;;;;;;;13.93;10.70;;;;;;;1.28;100.00;98940.75;5014012;28;20186;-87
2022/01/07 10:08:25;;;;;;;15.73;11.33;;;;;;;1.36;100.00;98933.53;5009599;28;20222;-86
2022/01/07 10:11:14;;;;;;;17.33;11.80;;;;;;;;;;5013039;28;20244;-86
2022/01/07 10:13:48;;;;;;;15.80;10.87;;;;;;;1.36;100.00;98935.31;5011193;28;20190;-85
2022/01/07 10:16:20;;;;;;;15.03;11.03;;;;;;;1.41;100.00;98923.81;5012222;28;20190;-85
2022/01/07 10:18:51;;;;;;;14.93;11.30;;;;;;;1.39;100.00;98922.16;5004226;28;20201;-84
2022/01/07 10:21:20;;;;;;;17.67;12.27;;;;;;;1.48;100.00;98921.03;5001802;28;20202;-83
2022/01/07 10:23:49;;;;;;;16.70;13.57;;;;;;;1.38;100.00;98910.88;5009493;28;20233;-83
2022/01/07 10:26:23;;;;;;;25.67;17.03;;;;;;;1.47;100.00;98908.88;5012859;28;20190;-83
2022/01/07 10:28:51;;;;;;;16.90;12.83;;;;;;;1.45;100.00;98903.72;5004897;28;20198;-84
2022/01/07 10:31:25;;;;;;;18.13;12.00;;;;;;;1.50;100.00;98911.38;4978318;28;20221;-84
2022/01/07 10:33:54;;;;;;;18.97;13.20;;;;;;;1.27;100.00;98907.75;4953123;28;20193;-83
2022/01/07 10:36:25;;;;;;;17.50;12.50;;;;;;;1.39;100.00;98901.28;4950907;28;20593;-84
2022/01/07 10:38:57;;;;;;;17.50;12.07;;;;;;;1.45;100.00;98903.72;4949446;28;20225;-83
2022/01/07 10:41:37;;;;;;;17.83;12.70;;;;;;;1.49;100.00;98892.25;4946472;29;20656;-82
2022/01/07 10:44:08;;;;;;;22.00;15.37;;;;;;;1.47;100.00;98890.63;4905572;29;20196;-84
2022/01/07 10:46:37;;;;;;;17.67;13.50;;;;;;;1.34;100.00;98883.16;4946418;28;20205;-84
2022/01/07 10:49:06;;;;;;;20.43;13.63;;;;;;;1.36;100.00;98883.13;4945212;28;20256;-85
2022/01/07 10:51:38;;;;;;;18.10;13.07;;;;;;;1.49;100.00;98878.34;4966010;28;20198;-86
2022/01/07 10:54:10;;;;;;;17.20;13.10;;;;;;;1.49;100.00;98883.59;5007508;28;20210;-87
2022/01/07 10:56:44;;;;;;;18.93;13.70;;;;;;;1.49;100.00;98873.16;5006463;28;20194;-85
2022/01/07 10:59:14;;;;;;;18.43;12.90;;;;;;;1.52;100.00;98873.03;5011344;28;20191;-84
2022/01/07 11:01:46;;;;;;;17.90;12.70;;;;;;;1.54;100.00;98868.63;4932525;29;20193;-87
2022/01/07 11:04:17;;;;;;;18.47;12.80;;;;;;;1.65;100.00;98874.38;4932846;29;20748;-87
2022/01/07 11:06:46;;;;;;;18.97;13.60;;;;;;;1.58;100.00;98863.25;4934286;29;20225;-85
2022/01/07 11:09:18;;;;;;;21.93;13.43;;;;;;;1.49;100.00;98867.91;4931548;29;20201;-87
2022/01/07 11:11:55;;;;;;;19.07;13.90;;;;;;;1.49;100.00;98860.94;4927316;29;20201;-88
2022/01/07 11:14:25;;;;;;;21.57;15.03;;;;;;;1.36;100.00;98846.59;4924381;29;20201;-87
2022/01/07 11:16:55;;;;;;;22.13;14.60;;;;;;;1.36;100.00;98846.59;4932749;29;20205;-88
2022/01/07 11:19:25;;;;;;;22.07;13.63;;;;;;;1.49;100.00;98852.28;4949009;28;20194;-89
2022/01/07 11:21:55;;;;;;;19.73;13.40;;;;;;;1.37;100.00;98856.97;5013876;28;20666;-89
2022/01/07 11:24:36;;;;;;;21.30;13.90;;;;;;;1.40;100.00;98846.44;5007782;28;20198;-88
2022/01/07 11:27:12;;;;;;;23.10;14.97;;;;;;;1.36;100.00;98849.22;5008210;28;20195;-87
2022/01/07 11:29:42;;;;;;;19.90;14.33;;;;;;;1.30;100.00;98839.81;5009438;28;20207;-87
2022/01/07 11:32:34;;;;;;;21.40;15.63;;;;;;;1.32;100.00;98842.38;5008796;28;20194;-87
2022/01/07 11:35:47;;;;;;;22.10;13.93;;;;;;;1.36;100.00;98833.56;5014593;28;20198;-87
2022/01/07 11:38:44;;;;;;;19.77;13.47;;;;;;;1.40;100.00;98822.09;5017536;28;20198;-90